sensor_id;sensor_type;location;lat;lon;timestamp;pressure;altitude;pressure_sealevel;temperature;humidity
62928;BME280;51070;52.236;-0.892;2022-12-29T00:01:35;98297.46;;;8.51;85.17
62928;BME280;51070;52.236;-0.892;2022-12-29T00:04:01;98289.02;;;8.50;85.09
62928;BME280;51070;52.236;-0.892;2022-12-29T00:06:27;98281.27;;;8.48;85.24
62928;BME280;51070;52.236;-0.892;2022-12-29T00:08:53;98279.91;;;8.46;85.26
62928;BME280;51070;52.236;-0.892;2022-12-29T00:11:22;98284.89;;;8.44;85.28
62928;BME280;51070;52.236;-0.892;2022-12-29T00:13:48;98280.75;;;8.42;85.68
62928;BME280;51070;52.236;-0.892;2022-12-29T00:16:32;98279.38;;;8.40;85.82
62928;BME280;51070;52.236;-0.892;2022-12-29T00:18:58;98281.95;;;8.39;85.99
62928;BME280;51070;52.236;-0.892;2022-12-29T00:21:24;98290.89;;;8.37;86.60
62928;BME280;51070;52.236;-0.892;2022-12-29T00:24:09;98283.33;;;8.36;87.10
62928;BME280;51070;52.236;-0.892;2022-12-29T00:26:57;98278.33;;;8.37;87.24
62928;BME280;51070;52.236;-0.892;2022-12-29T00:29:41;98273.35;;;8.40;87.50
62928;BME280;51070;52.236;-0.892;2022-12-29T00:32:25;98274.56;;;8.42;87.08
62928;BME280;51070;52.236;-0.892;2022-12-29T00:35:11;98272.33;;;8.44;86.81
62928;BME280;51070;52.236;-0.892;2022-12-29T00:37:39;98271.13;;;8.46;86.68
62928;BME280;51070;52.236;-0.892;2022-12-29T00:40:24;98262.86;;;8.47;86.42
62928;BME280;51070;52.236;-0.892;2022-12-29T00:43:08;98266.13;;;8.48;86.54
62928;BME280;51070;52.236;-0.892;2022-12-29T00:45:52;98263.38;;;8.48;86.45
62928;BME280;51070;52.236;-0.892;2022-12-29T00:48:18;98261.65;;;8.49;86.29
62928;BME280;51070;52.236;-0.892;2022-12-29T00:51:02;98254.60;;;8.49;85.96
62928;BME280;51070;52.236;-0.892;2022-12-29T00:53:27;98251.50;;;8.51;85.28
62928;BME280;51070;52.236;-0.892;2022-12-29T00:55:53;98248.94;;;8.51;85.41
62928;BME280;51070;52.236;-0.892;2022-12-29T00:58:18;98238.95;;;8.52;85.02
62928;BME280;51070;52.236;-0.892;2022-12-29T01:00:43;98246.02;;;8.52;85.76
62928;BME280;51070;52.236;-0.892;2022-12-29T01:03:08;98241.52;;;8.50;85.18
62928;BME280;51070;52.236;-0.892;2022-12-29T01:05:36;98239.11;;;8.47;84.67
62928;BME280;51070;52.236;-0.892;2022-12-29T01:08:01;98235.33;;;8.45;85.13
62928;BME280;51070;52.236;-0.892;2022-12-29T01:10:26;98226.37;;;8.44;84.00
62928;BME280;51070;52.236;-0.892;2022-12-29T01:12:51;98234.11;;;8.42;83.29
62928;BME280;51070;52.236;-0.892;2022-12-29T01:15:17;98231.88;;;8.44;83.11
62928;BME280;51070;52.236;-0.892;2022-12-29T01:17:42;98227.91;;;8.43;83.67
62928;BME280;51070;52.236;-0.892;2022-12-29T01:20:08;98230.84;;;8.42;83.41
62928;BME280;51070;52.236;-0.892;2022-12-29T01:22:33;98226.20;;;8.44;82.99
62928;BME280;51070;52.236;-0.892;2022-12-29T01:24:58;98217.93;;;8.44;83.46
62928;BME280;51070;52.236;-0.892;2022-12-29T01:27:23;98218.80;;;8.43;83.10
62928;BME280;51070;52.236;-0.892;2022-12-29T01:29:49;98216.56;;;8.41;83.04
62928;BME280;51070;52.236;-0.892;2022-12-29T01:32:14;98219.82;;;8.38;83.24
62928;BME280;51070;52.236;-0.892;2022-12-29T01:34:39;98224.48;;;8.35;83.22
62928;BME280;51070;52.236;-0.892;2022-12-29T01:37:04;98225.14;;;8.32;83.22
62928;BME280;51070;52.236;-0.892;2022-12-29T01:39:30;98223.75;;;8.29;83.49
62928;BME280;51070;52.236;-0.892;2022-12-29T01:41:55;98236.11;;;8.25;83.63
62928;BME280;51070;52.236;-0.892;2022-12-29T01:47:04;98257.80;;;8.20;84.18
62928;BME280;51070;52.236;-0.892;2022-12-29T01:49:32;98268.45;;;8.19;84.89
62928;BME280;51070;52.236;-0.892;2022-12-29T01:51:58;98263.64;;;8.19;84.63
62928;BME280;51070;52.236;-0.892;2022-12-29T01:54:47;98265.19;;;8.19;84.32
62928;BME280;51070;52.236;-0.892;2022-12-29T01:57:12;98261.39;;;8.19;84.43
62928;BME280;51070;52.236;-0.892;2022-12-29T01:59:39;98268.45;;;8.18;83.93
62928;BME280;51070;52.236;-0.892;2022-12-29T02:02:08;98278.59;;;8.18;83.88
62928;BME280;51070;52.236;-0.892;2022-12-29T02:04:33;98289.45;;;8.19;84.14
62928;BME280;51070;52.236;-0.892;2022-12-29T02:07:03;98293.41;;;8.20;84.32
62928;BME280;51070;52.236;-0.892;2022-12-29T02:09:31;98297.52;;;8.21;84.43
62928;BME280;51070;52.236;-0.892;2022-12-29T02:11:56;98297.53;;;8.22;84.40
62928;BME280;51070;52.236;-0.892;2022-12-29T02:14:22;98293.91;;;8.22;84.50
62928;BME280;51070;52.236;-0.892;2022-12-29T02:19:33;98282.55;;;8.22;84.02
62928;BME280;51070;52.236;-0.892;2022-12-29T02:30:01;98273.98;;;8.25;84.20
62928;BME280;51070;52.236;-0.892;2022-12-29T02:32:38;98259.53;;;8.26;84.02
62928;BME280;51070;52.236;-0.892;2022-12-29T02:35:14;98254.17;;;8.27;83.99
62928;BME280;51070;52.236;-0.892;2022-12-29T02:47:51;98240.14;;;8.36;82.42
62928;BME280;51070;52.236;-0.892;2022-12-29T02:50:23;98231.86;;;8.38;82.84
62928;BME280;51070;52.236;-0.892;2022-12-29T02:52:54;98231.35;;;8.39;82.36
62928;BME280;51070;52.236;-0.892;2022-12-29T02:55:22;98229.98;;;8.40;81.88
62928;BME280;51070;52.236;-0.892;2022-12-29T02:57:47;98222.92;;;8.39;82.20
62928;BME280;51070;52.236;-0.892;2022-12-29T03:00:13;98225.32;;;8.37;81.51
62928;BME280;51070;52.236;-0.892;2022-12-29T03:08:27;98226.20;;;8.40;81.71
62928;BME280;51070;52.236;-0.892;2022-12-29T03:14:09;98224.64;;;8.38;82.01
62928;BME280;51070;52.236;-0.892;2022-12-29T03:16:40;98225.00;;;8.40;81.62
62928;BME280;51070;52.236;-0.892;2022-12-29T03:19:43;98223.63;;;8.41;82.15
62928;BME280;51070;52.236;-0.892;2022-12-29T03:22:04;98219.67;;;8.41;82.09
62928;BME280;51070;52.236;-0.892;2022-12-29T03:24:50;98224.48;;;8.41;82.94
62928;BME280;51070;52.236;-0.892;2022-12-29T03:27:19;98224.30;;;8.39;83.98
62928;BME280;51070;52.236;-0.892;2022-12-29T03:29:46;98221.54;;;8.34;85.21
62928;BME280;51070;52.236;-0.892;2022-12-29T03:32:17;98215.33;;;8.30;85.99
62928;BME280;51070;52.236;-0.892;2022-12-29T03:34:44;98226.48;;;8.26;86.44
62928;BME280;51070;52.236;-0.892;2022-12-29T03:37:10;98231.65;;;8.24;86.56
62928;BME280;51070;52.236;-0.892;2022-12-29T03:39:36;98221.48;;;8.21;87.50
62928;BME280;51070;52.236;-0.892;2022-12-29T03:42:02;98228.03;;;8.20;87.96
62928;BME280;51070;52.236;-0.892;2022-12-29T03:44:34;98230.43;;;8.20;88.61
62928;BME280;51070;52.236;-0.892;2022-12-29T03:47:01;98237.15;;;8.19;89.26
62928;BME280;51070;52.236;-0.892;2022-12-29T03:49:26;98244.19;;;8.18;89.86
62928;BME280;51070;52.236;-0.892;2022-12-29T03:51:51;98246.77;;;8.16;91.07
62928;BME280;51070;52.236;-0.892;2022-12-29T03:54:18;98252.78;;;8.15;91.41
62928;BME280;51070;52.236;-0.892;2022-12-29T03:56:43;98243.16;;;8.14;91.79
62928;BME280;51070;52.236;-0.892;2022-12-29T03:59:08;98247.27;;;8.13;91.89
62928;BME280;51070;52.236;-0.892;2022-12-29T04:01:34;98253.98;;;8.13;92.57
62928;BME280;51070;52.236;-0.892;2022-12-29T04:03:59;98269.98;;;8.12;92.53
62928;BME280;51070;52.236;-0.892;2022-12-29T04:06:24;98274.63;;;8.13;92.67
62928;BME280;51070;52.236;-0.892;2022-12-29T04:08:49;98293.89;;;8.13;93.05
62928;BME280;51070;52.236;-0.892;2022-12-29T04:11:15;98309.05;;;8.14;93.11
62928;BME280;51070;52.236;-0.892;2022-12-29T04:13:40;98311.45;;;8.14;93.60
62928;BME280;51070;52.236;-0.892;2022-12-29T04:16:06;98322.29;;;8.14;94.11
62928;BME280;51070;52.236;-0.892;2022-12-29T04:18:31;98336.05;;;8.13;93.94
62928;BME280;51070;52.236;-0.892;2022-12-29T04:20:56;98343.27;;;8.13;94.24
62928;BME280;51070;52.236;-0.892;2022-12-29T04:23:25;98350.84;;;8.13;94.02
62928;BME280;51070;52.236;-0.892;2022-12-29T04:25:50;98358.75;;;8.13;94.11
62928;BME280;51070;52.236;-0.892;2022-12-29T04:28:15;98368.89;;;8.13;93.86
62928;BME280;51070;52.236;-0.892;2022-12-29T04:30:42;98377.16;;;8.13;93.53
62928;BME280;51070;52.236;-0.892;2022-12-29T04:33:07;98386.81;;;8.14;93.39
62928;BME280;51070;52.236;-0.892;2022-12-29T04:35:33;98396.10;;;8.15;93.34
62928;BME280;51070;52.236;-0.892;2022-12-29T04:37:58;98401.25;;;8.14;93.18
62928;BME280;51070;52.236;-0.892;2022-12-29T04:40:23;98407.77;;;8.12;93.21
62928;BME280;51070;52.236;-0.892;2022-12-29T04:42:49;98417.90;;;8.08;93.06
62928;BME280;51070;52.236;-0.892;2022-12-29T04:45:14;98422.02;;;8.04;93.26
62928;BME280;51070;52.236;-0.892;2022-12-29T04:47:39;98429.02;;;8.00;93.35
62928;BME280;51070;52.236;-0.892;2022-12-29T04:50:05;98428.15;;;7.96;93.29
62928;BME280;51070;52.236;-0.892;2022-12-29T04:52:30;98432.60;;;7.92;93.28
62928;BME280;51070;52.236;-0.892;2022-12-29T04:54:56;98436.70;;;7.90;93.48
62928;BME280;51070;52.236;-0.892;2022-12-29T04:57:21;98441.00;;;7.88;93.59
62928;BME280;51070;52.236;-0.892;2022-12-29T04:59:46;98449.60;;;7.87;93.51
62928;BME280;51070;52.236;-0.892;2022-12-29T05:02:11;98448.57;;;7.86;93.53
62928;BME280;51070;52.236;-0.892;2022-12-29T05:04:37;98448.02;;;7.85;93.80
62928;BME280;51070;52.236;-0.892;2022-12-29T05:07:02;98452.99;;;7.84;93.97
62928;BME280;51070;52.236;-0.892;2022-12-29T05:09:27;98460.75;;;7.82;94.22
62928;BME280;51070;52.236;-0.892;2022-12-29T05:11:52;98463.64;;;7.79;94.18
62928;BME280;51070;52.236;-0.892;2022-12-29T05:14:18;98461.89;;;7.75;94.38
62928;BME280;51070;52.236;-0.892;2022-12-29T05:16:43;98475.95;;;7.71;94.60
62928;BME280;51070;52.236;-0.892;2022-12-29T05:19:08;98479.20;;;7.69;94.43
62928;BME280;51070;52.236;-0.892;2022-12-29T05:21:33;98480.91;;;7.69;94.60
62928;BME280;51070;52.236;-0.892;2022-12-29T05:23:59;98482.46;;;7.69;94.49
62928;BME280;51070;52.236;-0.892;2022-12-29T05:26:24;98488.66;;;7.69;94.47
62928;BME280;51070;52.236;-0.892;2022-12-29T05:28:49;98489.85;;;7.69;94.30
62928;BME280;51070;52.236;-0.892;2022-12-29T05:31:14;98496.38;;;7.68;94.34
62928;BME280;51070;52.236;-0.892;2022-12-29T05:33:40;98506.86;;;7.66;94.28
62928;BME280;51070;52.236;-0.892;2022-12-29T05:36:05;98509.08;;;7.64;94.22
62928;BME280;51070;52.236;-0.892;2022-12-29T05:38:31;98511.63;;;7.62;93.99
62928;BME280;51070;52.236;-0.892;2022-12-29T05:40:56;98518.34;;;7.61;94.01
62928;BME280;51070;52.236;-0.892;2022-12-29T05:43:21;98527.10;;;7.60;93.86
62928;BME280;51070;52.236;-0.892;2022-12-29T05:45:49;98535.84;;;7.58;93.55
62928;BME280;51070;52.236;-0.892;2022-12-29T05:48:15;98541.14;;;7.57;93.55
62928;BME280;51070;52.236;-0.892;2022-12-29T05:50:40;98547.15;;;7.54;93.42
62928;BME280;51070;52.236;-0.892;2022-12-29T05:53:06;98556.59;;;7.53;93.38
62928;BME280;51070;52.236;-0.892;2022-12-29T05:55:31;98560.69;;;7.51;93.33
62928;BME280;51070;52.236;-0.892;2022-12-29T05:57:56;98565.48;;;7.48;93.43
62928;BME280;51070;52.236;-0.892;2022-12-29T06:00:22;98571.47;;;7.46;93.03
62928;BME280;51070;52.236;-0.892;2022-12-29T06:02:47;98573.70;;;7.46;93.15
62928;BME280;51070;52.236;-0.892;2022-12-29T06:05:12;98588.30;;;7.44;92.87
62928;BME280;51070;52.236;-0.892;2022-12-29T06:07:37;98593.95;;;7.43;92.70
62928;BME280;51070;52.236;-0.892;2022-12-29T06:10:04;98593.42;;;7.42;92.58
62928;BME280;51070;52.236;-0.892;2022-12-29T06:12:29;98597.88;;;7.40;92.41
62928;BME280;51070;52.236;-0.892;2022-12-29T06:14:54;98596.47;;;7.38;92.35
62928;BME280;51070;52.236;-0.892;2022-12-29T06:17:19;98603.65;;;7.35;92.35
62928;BME280;51070;52.236;-0.892;2022-12-29T06:19:45;98612.23;;;7.32;92.28
62928;BME280;51070;52.236;-0.892;2022-12-29T06:22:10;98617.16;;;7.29;92.16
62928;BME280;51070;52.236;-0.892;2022-12-29T06:24:37;98621.05;;;7.25;92.15
62928;BME280;51070;52.236;-0.892;2022-12-29T06:27:02;98624.13;;;7.23;92.05
62928;BME280;51070;52.236;-0.892;2022-12-29T06:29:28;98624.97;;;7.21;91.97
62928;BME280;51070;52.236;-0.892;2022-12-29T06:31:53;98628.55;;;7.21;91.98
62928;BME280;51070;52.236;-0.892;2022-12-29T06:34:21;98631.98;;;7.19;91.78
62928;BME280;51070;52.236;-0.892;2022-12-29T06:36:46;98637.30;;;7.19;91.56
62928;BME280;51070;52.236;-0.892;2022-12-29T06:39:11;98641.75;;;7.18;91.55
62928;BME280;51070;52.236;-0.892;2022-12-29T06:41:37;98643.98;;;7.16;91.30
62928;BME280;51070;52.236;-0.892;2022-12-29T06:44:02;98644.98;;;7.14;91.60
62928;BME280;51070;52.236;-0.892;2022-12-29T06:46:28;98653.89;;;7.13;91.47
62928;BME280;51070;52.236;-0.892;2022-12-29T06:48:53;98656.96;;;7.11;91.68
62928;BME280;51070;52.236;-0.892;2022-12-29T06:51:18;98663.30;;;7.10;91.68
62928;BME280;51070;52.236;-0.892;2022-12-29T06:53:44;98672.56;;;7.09;91.58
62928;BME280;51070;52.236;-0.892;2022-12-29T06:56:09;98680.61;;;7.07;91.65
62928;BME280;51070;52.236;-0.892;2022-12-29T06:58:34;98688.83;;;7.05;91.64
62928;BME280;51070;52.236;-0.892;2022-12-29T07:00:59;98693.95;;;7.03;91.69
62928;BME280;51070;52.236;-0.892;2022-12-29T07:03:25;98700.45;;;7.01;91.97
62928;BME280;51070;52.236;-0.892;2022-12-29T07:05:50;98705.40;;;6.99;92.20
62928;BME280;51070;52.236;-0.892;2022-12-29T07:08:15;98712.61;;;6.99;92.39
62928;BME280;51070;52.236;-0.892;2022-12-29T07:10:40;98717.90;;;6.97;92.31
62928;BME280;51070;52.236;-0.892;2022-12-29T07:13:06;98724.08;;;6.97;92.46
62928;BME280;51070;52.236;-0.892;2022-12-29T07:15:33;98724.08;;;6.95;92.66
62928;BME280;51070;52.236;-0.892;2022-12-29T07:17:58;98735.70;;;6.93;92.80
62928;BME280;51070;52.236;-0.892;2022-12-29T07:20:23;98738.26;;;6.91;92.98
62928;BME280;51070;52.236;-0.892;2022-12-29T07:22:48;98735.79;;;6.88;93.12
62928;BME280;51070;52.236;-0.892;2022-12-29T07:25:14;98741.08;;;6.85;93.34
62928;BME280;51070;52.236;-0.892;2022-12-29T07:27:39;98746.56;;;6.84;93.33
62928;BME280;51070;52.236;-0.892;2022-12-29T07:30:04;98750.65;;;6.83;93.34
62928;BME280;51070;52.236;-0.892;2022-12-29T07:32:33;98755.80;;;6.83;93.24
62928;BME280;51070;52.236;-0.892;2022-12-29T07:34:59;98759.56;;;6.82;93.26
62928;BME280;51070;52.236;-0.892;2022-12-29T07:37:24;98765.40;;;6.82;93.27
62928;BME280;51070;52.236;-0.892;2022-12-29T07:39:49;98764.88;;;6.81;93.40
62928;BME280;51070;52.236;-0.892;2022-12-29T07:42:15;98775.70;;;6.80;93.55
62928;BME280;51070;52.236;-0.892;2022-12-29T07:44:40;98784.59;;;6.79;93.59
62928;BME280;51070;52.236;-0.892;2022-12-29T07:47:05;98787.64;;;6.77;93.66
62928;BME280;51070;52.236;-0.892;2022-12-29T07:49:30;98793.09;;;6.74;93.70
62928;BME280;51070;52.236;-0.892;2022-12-29T07:51:56;98794.92;;;6.71;93.77
62928;BME280;51070;52.236;-0.892;2022-12-29T07:54:21;98800.23;;;6.69;93.79
62928;BME280;51070;52.236;-0.892;2022-12-29T07:56:47;98807.42;;;6.69;93.97
62928;BME280;51070;52.236;-0.892;2022-12-29T07:59:13;98811.90;;;6.69;94.16
62928;BME280;51070;52.236;-0.892;2022-12-29T08:01:38;98807.45;;;6.70;94.17
62928;BME280;51070;52.236;-0.892;2022-12-29T08:04:04;98807.65;;;6.72;93.98
62928;BME280;51070;52.236;-0.892;2022-12-29T08:06:29;98817.47;;;6.74;93.86
62928;BME280;51070;52.236;-0.892;2022-12-29T08:08:55;98821.95;;;6.75;93.61
62928;BME280;51070;52.236;-0.892;2022-12-29T08:11:21;98829.16;;;6.75;93.49
62928;BME280;51070;52.236;-0.892;2022-12-29T08:13:46;98832.08;;;6.75;93.36
62928;BME280;51070;52.236;-0.892;2022-12-29T08:16:12;98839.16;;;6.77;93.14
62928;BME280;51070;52.236;-0.892;2022-12-29T08:18:37;98839.71;;;6.79;93.16
62928;BME280;51070;52.236;-0.892;2022-12-29T08:21:03;98842.31;;;6.82;93.05
62928;BME280;51070;52.236;-0.892;2022-12-29T08:23:29;98847.83;;;6.82;92.55
62928;BME280;51070;52.236;-0.892;2022-12-29T08:26:01;98848.84;;;6.82;92.44
62928;BME280;51070;52.236;-0.892;2022-12-29T08:28:26;98852.25;;;6.80;92.40
62928;BME280;51070;52.236;-0.892;2022-12-29T08:30:51;98849.45;;;6.77;92.12
62928;BME280;51070;52.236;-0.892;2022-12-29T08:33:17;98858.34;;;6.74;92.38
62928;BME280;51070;52.236;-0.892;2022-12-29T08:35:42;98862.10;;;6.73;92.23
62928;BME280;51070;52.236;-0.892;2022-12-29T08:38:07;98865.89;;;6.74;92.21
62928;BME280;51070;52.236;-0.892;2022-12-29T08:40:33;98872.07;;;6.74;91.95
62928;BME280;51070;52.236;-0.892;2022-12-29T08:42:58;98884.43;;;6.74;91.87
62928;BME280;51070;52.236;-0.892;2022-12-29T08:45:23;98889.91;;;6.73;91.77
62928;BME280;51070;52.236;-0.892;2022-12-29T08:47:48;98891.77;;;6.72;91.50
62928;BME280;51070;52.236;-0.892;2022-12-29T08:50:14;98894.73;;;6.73;91.62
62928;BME280;51070;52.236;-0.892;2022-12-29T08:52:39;98899.89;;;6.75;91.42
62928;BME280;51070;52.236;-0.892;2022-12-29T08:55:04;98897.66;;;6.76;91.49
62928;BME280;51070;52.236;-0.892;2022-12-29T08:57:30;98908.05;;;6.79;91.73
62928;BME280;51070;52.236;-0.892;2022-12-29T08:59:55;98914.76;;;6.80;91.81
62928;BME280;51070;52.236;-0.892;2022-12-29T09:02:20;98912.50;;;6.79;91.98
62928;BME280;51070;52.236;-0.892;2022-12-29T09:04:45;98917.98;;;6.79;92.28
62928;BME280;51070;52.236;-0.892;2022-12-29T09:07:10;98916.17;;;6.84;92.61
62928;BME280;51070;52.236;-0.892;2022-12-29T09:09:36;98918.33;;;6.88;92.68
62928;BME280;51070;52.236;-0.892;2022-12-29T09:12:01;98919.83;;;6.94;92.86
62928;BME280;51070;52.236;-0.892;2022-12-29T09:14:26;98920.41;;;6.99;92.93
62928;BME280;51070;52.236;-0.892;2022-12-29T09:16:53;98916.89;;;7.04;93.10
62928;BME280;51070;52.236;-0.892;2022-12-29T09:19:38;98921.86;;;7.12;92.82
62928;BME280;51070;52.236;-0.892;2022-12-29T09:22:03;98921.52;;;7.13;92.71
62928;BME280;51070;52.236;-0.892;2022-12-29T09:24:28;98924.79;;;7.14;92.89
62928;BME280;51070;52.236;-0.892;2022-12-29T09:26:53;98923.58;;;7.12;92.92
62928;BME280;51070;52.236;-0.892;2022-12-29T09:29:19;98933.47;;;7.09;93.06
62928;BME280;51070;52.236;-0.892;2022-12-29T09:31:44;98934.05;;;7.03;93.14
62928;BME280;51070;52.236;-0.892;2022-12-29T09:34:09;98944.44;;;6.98;93.36
62928;BME280;51070;52.236;-0.892;2022-12-29T09:36:35;98951.40;;;6.94;93.61
62928;BME280;51070;52.236;-0.892;2022-12-29T09:39:00;98953.73;;;6.91;93.89
62928;BME280;51070;52.236;-0.892;2022-12-29T09:44:05;98958.48;;;6.87;94.27
62928;BME280;51070;52.236;-0.892;2022-12-29T09:46:37;98972.18;;;6.85;94.58
62928;BME280;51070;52.236;-0.892;2022-12-29T09:51:43;98978.55;;;6.86;94.57
62928;BME280;51070;52.236;-0.892;2022-12-29T09:56:39;98991.34;;;6.89;94.69
62928;BME280;51070;52.236;-0.892;2022-12-29T09:59:12;98987.75;;;6.91;94.68
62928;BME280;51070;52.236;-0.892;2022-12-29T10:04:26;98999.55;;;6.97;94.36
62928;BME280;51070;52.236;-0.892;2022-12-29T10:07:02;99001.84;;;7.00;94.09
62928;BME280;51070;52.236;-0.892;2022-12-29T10:09:36;99011.35;;;7.04;94.05
62928;BME280;51070;52.236;-0.892;2022-12-29T10:17:12;99013.48;;;7.16;93.46
62928;BME280;51070;52.236;-0.892;2022-12-29T10:24:43;99010.86;;;7.24;92.66
62928;BME280;51070;52.236;-0.892;2022-12-29T10:27:12;99016.77;;;7.27;93.04
62928;BME280;51070;52.236;-0.892;2022-12-29T10:29:46;99021.47;;;7.31;92.99
62928;BME280;51070;52.236;-0.892;2022-12-29T10:32:17;99018.08;;;7.53;92.32
62928;BME280;51070;52.236;-0.892;2022-12-29T10:34:48;99023.46;;;7.76;90.81
62928;BME280;51070;52.236;-0.892;2022-12-29T10:37:17;99030.02;;;7.88;90.72
62928;BME280;51070;52.236;-0.892;2022-12-29T10:39:53;99029.43;;;8.05;89.99
62928;BME280;51070;52.236;-0.892;2022-12-29T10:44:47;99040.52;;;8.32;88.88
62928;BME280;51070;52.236;-0.892;2022-12-29T10:47:23;99038.05;;;8.39;87.15
62928;BME280;51070;52.236;-0.892;2022-12-29T10:49:50;99042.82;;;8.48;87.24
62928;BME280;51070;52.236;-0.892;2022-12-29T10:52:16;99042.30;;;8.61;86.45
62928;BME280;51070;52.236;-0.892;2022-12-29T10:54:49;99047.48;;;8.75;85.70
62928;BME280;51070;52.236;-0.892;2022-12-29T11:00:20;99037.86;;;8.90;83.27
62928;BME280;51070;52.236;-0.892;2022-12-29T11:07:59;99039.00;;;9.15;81.92
62928;BME280;51070;52.236;-0.892;2022-12-29T11:13:00;99045.20;;;9.31;81.63
62928;BME280;51070;52.236;-0.892;2022-12-29T11:15:25;99053.73;;;9.38;81.48
62928;BME280;51070;52.236;-0.892;2022-12-29T11:20:27;99064.41;;;9.37;80.77
62928;BME280;51070;52.236;-0.892;2022-12-29T11:22:53;99067.91;;;9.26;81.03
62928;BME280;51070;52.236;-0.892;2022-12-29T11:25:18;99075.69;;;9.28;81.72
62928;BME280;51070;52.236;-0.892;2022-12-29T11:28:00;99070.06;;;9.35;81.03
62928;BME280;51070;52.236;-0.892;2022-12-29T11:30:30;99072.19;;;9.38;80.86
62928;BME280;51070;52.236;-0.892;2022-12-29T11:32:56;99066.99;;;9.36;80.26
62928;BME280;51070;52.236;-0.892;2022-12-29T11:35:36;99067.48;;;9.36;80.38
62928;BME280;51070;52.236;-0.892;2022-12-29T11:38:02;99074.02;;;9.33;80.76
62928;BME280;51070;52.236;-0.892;2022-12-29T11:40:29;99079.23;;;9.37;80.26
62928;BME280;51070;52.236;-0.892;2022-12-29T11:42:59;99086.23;;;9.30;78.57
62928;BME280;51070;52.236;-0.892;2022-12-29T11:45:27;99093.78;;;9.28;78.96
62928;BME280;51070;52.236;-0.892;2022-12-29T11:48:13;99102.52;;;9.39;79.53
62928;BME280;51070;52.236;-0.892;2022-12-29T11:50:41;99098.21;;;9.53;78.09
62928;BME280;51070;52.236;-0.892;2022-12-29T11:53:15;99102.18;;;9.73;77.82
62928;BME280;51070;52.236;-0.892;2022-12-29T11:55:50;99102.23;;;9.95;76.28
62928;BME280;51070;52.236;-0.892;2022-12-29T11:58:16;99102.81;;;10.02;77.23
62928;BME280;51070;52.236;-0.892;2022-12-29T12:00:41;99099.24;;;10.10;76.97
62928;BME280;51070;52.236;-0.892;2022-12-29T12:03:14;99099.92;;;10.08;75.78
62928;BME280;51070;52.236;-0.892;2022-12-29T12:05:55;99095.90;;;10.01;75.51
62928;BME280;51070;52.236;-0.892;2022-12-29T12:08:39;99095.80;;;9.90;76.30
62928;BME280;51070;52.236;-0.892;2022-12-29T12:11:09;99093.80;;;9.79;75.26
62928;BME280;51070;52.236;-0.892;2022-12-29T12:16:27;99097.36;;;9.71;76.38
62928;BME280;51070;52.236;-0.892;2022-12-29T12:19:04;99098.64;;;9.62;76.19
62928;BME280;51070;52.236;-0.892;2022-12-29T12:21:36;99101.86;;;9.57;76.77
62928;BME280;51070;52.236;-0.892;2022-12-29T12:26:37;99107.30;;;9.51;76.09
62928;BME280;51070;52.236;-0.892;2022-12-29T12:29:11;99112.98;;;9.49;74.88
62928;BME280;51070;52.236;-0.892;2022-12-29T12:34:05;99103.02;;;9.53;75.61
62928;BME280;51070;52.236;-0.892;2022-12-29T12:36:43;99101.15;;;9.55;75.34
62928;BME280;51070;52.236;-0.892;2022-12-29T12:39:19;99102.73;;;9.58;73.79
62928;BME280;51070;52.236;-0.892;2022-12-29T12:56:59;99114.56;;;9.85;72.52
62928;BME280;51070;52.236;-0.892;2022-12-29T13:04:40;99111.96;;;9.67;72.21
62928;BME280;51070;52.236;-0.892;2022-12-29T13:07:17;99109.46;;;9.58;71.52
62928;BME280;51070;52.236;-0.892;2022-12-29T13:09:51;99111.76;;;9.47;71.90
62928;BME280;51070;52.236;-0.892;2022-12-29T13:14:59;99107.88;;;9.39;73.10
62928;BME280;51070;52.236;-0.892;2022-12-29T13:17:36;99108.75;;;9.40;73.26
62928;BME280;51070;52.236;-0.892;2022-12-29T13:20:24;99111.09;;;9.34;73.27
62928;BME280;51070;52.236;-0.892;2022-12-29T13:22:55;99122.73;;;9.26;73.31
62928;BME280;51070;52.236;-0.892;2022-12-29T13:25:37;99127.09;;;9.31;72.74
62928;BME280;51070;52.236;-0.892;2022-12-29T13:30:34;99131.11;;;9.36;73.02
62928;BME280;51070;52.236;-0.892;2022-12-29T13:35:54;99134.44;;;9.26;72.57
62928;BME280;51070;52.236;-0.892;2022-12-29T13:41:08;99134.67;;;9.16;72.51
62928;BME280;51070;52.236;-0.892;2022-12-29T13:43:35;99132.60;;;9.16;72.58
62928;BME280;51070;52.236;-0.892;2022-12-29T13:46:04;99140.39;;;9.19;72.32
62928;BME280;51070;52.236;-0.892;2022-12-29T13:48:36;99139.89;;;9.20;71.97
62928;BME280;51070;52.236;-0.892;2022-12-29T13:51:02;99146.59;;;9.18;71.57
62928;BME280;51070;52.236;-0.892;2022-12-29T13:56:19;99148.34;;;9.08;72.01
62928;BME280;51070;52.236;-0.892;2022-12-29T14:01:38;99156.17;;;8.88;72.90
62928;BME280;51070;52.236;-0.892;2022-12-29T14:04:15;99157.11;;;8.80;73.28
62928;BME280;51070;52.236;-0.892;2022-12-29T14:06:46;99160.83;;;8.76;73.83
62928;BME280;51070;52.236;-0.892;2022-12-29T14:09:55;99159.63;;;8.76;73.80
62928;BME280;51070;52.236;-0.892;2022-12-29T14:12:00;99158.02;;;8.71;73.61
62928;BME280;51070;52.236;-0.892;2022-12-29T14:14:27;99169.09;;;8.64;73.71
62928;BME280;51070;52.236;-0.892;2022-12-29T14:16:53;99166.59;;;8.60;73.49
62928;BME280;51070;52.236;-0.892;2022-12-29T14:19:20;99167.42;;;8.56;73.99
62928;BME280;51070;52.236;-0.892;2022-12-29T14:21:55;99172.02;;;8.53;74.21
62928;BME280;51070;52.236;-0.892;2022-12-29T14:27:00;99183.08;;;8.44;74.61
62928;BME280;51070;52.236;-0.892;2022-12-29T14:31:51;99180.23;;;8.29;75.24
62928;BME280;51070;52.236;-0.892;2022-12-29T14:39:35;99195.98;;;8.07;75.79
62928;BME280;51070;52.236;-0.892;2022-12-29T14:44:49;99202.07;;;7.91;75.94
62928;BME280;51070;52.236;-0.892;2022-12-29T14:49:56;99212.92;;;7.74;77.30
62928;BME280;51070;52.236;-0.892;2022-12-29T14:52:27;99221.01;;;7.66;77.83
62928;BME280;51070;52.236;-0.892;2022-12-29T14:54:54;99225.83;;;7.57;78.57
62928;BME280;51070;52.236;-0.892;2022-12-29T14:59:48;99230.05;;;7.46;79.52
62928;BME280;51070;52.236;-0.892;2022-12-29T15:02:19;99238.08;;;7.43;79.96
62928;BME280;51070;52.236;-0.892;2022-12-29T15:04:46;99239.55;;;7.39;80.39
62928;BME280;51070;52.236;-0.892;2022-12-29T15:07:12;99237.60;;;7.36;80.89
62928;BME280;51070;52.236;-0.892;2022-12-29T15:09:45;99244.08;;;7.34;81.02
62928;BME280;51070;52.236;-0.892;2022-12-29T15:15:25;99254.14;;;7.31;81.89
62928;BME280;51070;52.236;-0.892;2022-12-29T15:17:51;99255.98;;;7.29;82.10
62928;BME280;51070;52.236;-0.892;2022-12-29T15:20:27;99258.71;;;7.27;82.27